Sand Key, FL current weather conditions

sailwx.info

Wind from 060 at 8 knots gusting 9

Air temperature 27.7° C
Dewpoint 23.6° C

Last reported at 2016-Jul-24 01:50 UTC.
Time now 2016-Jul-24 02:53 UTC

Location: N 24°28' W 081°53'.
View on Google Maps.

See reports from other nearby stations

  
Tides and Currents Weather Stations Pressure Air Temp Water Temp Dewpoint Dewpoint Depression Visibility Wind Speed Wind Dir Waves Ship Positions
date/time (UTC)wind fromknots sea level pressurealtimeterstation pressurevisibilityair tempwater tempwave heightnotes
2016-Jul-24 01:50 060 8 gusting 9 27.7
2016-Jul-24 00:50 060 11 gusting 16 27.8
2016-Jul-23 22:50 180 4 gusting 6 29.0
2016-Jul-23 21:50 150 6 gusting 7 29.0
2016-Jul-23 20:50 150 6 gusting 7 28.9
2016-Jul-23 19:50 150 5 gusting 6 28.9
2016-Jul-23 18:50 28.6
2016-Jul-23 17:50 28.7
2016-Jul-23 16:50 28.5
2016-Jul-23 15:50 28.2
2016-Jul-23 14:50 28.4
2016-Jul-23 13:50 110 6 gusting 7 28.4
2016-Jul-23 12:50 100 6 gusting 8 28.5
2016-Jul-23 11:50 100 4 gusting 5 28.4
2016-Jul-23 10:50 120 4 gusting 5 28.0
2016-Jul-23 09:50 140 5 gusting 6 28.2
2016-Jul-23 08:50 140 7 gusting 8 28.1
2016-Jul-23 07:50 150 7 gusting 9 28.0
2016-Jul-23 06:50 170 12 gusting 14 28.0
2016-Jul-23 05:50 130 13 gusting 16 28.5
2016-Jul-23 04:50 120 12 gusting 14 28.3
2016-Jul-23 03:50 090 16 gusting 18 28.5
2016-Jul-23 02:50 090 8 gusting 9 28.8
2016-Jul-23 01:50 090 4 gusting 5 28.9
2016-Jul-23 00:50 110 6 gusting 8 28.7
2016-Jul-22 22:50 100 6 gusting 7 29.0
2016-Jul-22 21:50 090 7 gusting 8 28.9
2016-Jul-22 20:50 090 7 gusting 8 29.0
2016-Jul-22 19:50 080 4 gusting 7 29.0
2016-Jul-22 18:50 080 4 gusting 6 29.0
2016-Jul-22 17:50 120 5 gusting 8 29.0
2016-Jul-22 16:50 140 4 gusting 5 29.1
2016-Jul-22 15:50 150 4 gusting 6 29.0
2016-Jul-22 14:50 150 7 gusting 7 28.9
2016-Jul-22 13:50 120 8 gusting 9 28.7
2016-Jul-22 12:50 130 10 gusting 11 28.8
2016-Jul-22 11:50 120 11 gusting 12 28.6
2016-Jul-22 10:50 130 12 gusting 13 28.5
2016-Jul-22 09:50 110 11 gusting 12 28.5
2016-Jul-22 08:50 090 9 gusting 10 28.5
2016-Jul-22 07:50 120 7 gusting 8 28.5
2016-Jul-22 06:50 140 10 gusting 12 28.6
2016-Jul-22 05:50 120 8 gusting 10 28.5
2016-Jul-22 04:50 140 10 gusting 11 28.7
2016-Jul-22 03:50 140 12 gusting 13 28.7
2016-Jul-22 02:50 130 11 gusting 13 28.6